sensor_id;sensor_type;location;lat;lon;timestamp;pressure;altitude;pressure_sealevel;temperature
48362;BMP280;34510;51.888;5.670;2022-09-16T00:02:27;101025.00;;;14.10
48362;BMP280;34510;51.888;5.670;2022-09-16T00:07:29;101019.53;;;14.28
48362;BMP280;34510;51.888;5.670;2022-09-16T00:12:31;101017.94;;;14.52
48362;BMP280;34510;51.888;5.670;2022-09-16T00:17:34;101015.84;;;14.41
48362;BMP280;34510;51.888;5.670;2022-09-16T00:22:35;101013.44;;;14.51
48362;BMP280;34510;51.888;5.670;2022-09-16T00:27:37;101014.44;;;14.63
48362;BMP280;34510;51.888;5.670;2022-09-16T00:32:39;101005.75;;;14.46
48362;BMP280;34510;51.888;5.670;2022-09-16T00:37:41;101011.00;;;14.61
48362;BMP280;34510;51.888;5.670;2022-09-16T00:42:42;101015.09;;;14.58
48362;BMP280;34510;51.888;5.670;2022-09-16T00:47:53;101026.19;;;14.34
48362;BMP280;34510;51.888;5.670;2022-09-16T00:52:57;101018.56;;;14.54
48362;BMP280;34510;51.888;5.670;2022-09-16T00:58:14;101027.03;;;14.27
48362;BMP280;34510;51.888;5.670;2022-09-16T01:03:17;101027.69;;;14.29
48362;BMP280;34510;51.888;5.670;2022-09-16T01:08:19;101027.75;;;14.16
48362;BMP280;34510;51.888;5.670;2022-09-16T01:13:21;101023.63;;;14.25
48362;BMP280;34510;51.888;5.670;2022-09-16T01:34:44;101014.03;;;14.15
48362;BMP280;34510;51.888;5.670;2022-09-16T01:40:17;101006.28;;;14.17
48362;BMP280;34510;51.888;5.670;2022-09-16T01:45:44;101012.22;;;14.34
48362;BMP280;34510;51.888;5.670;2022-09-16T01:50:56;101009.72;;;14.19
48362;BMP280;34510;51.888;5.670;2022-09-16T01:56:19;101006.25;;;14.23
48362;BMP280;34510;51.888;5.670;2022-09-16T02:01:41;101018.94;;;14.19
48362;BMP280;34510;51.888;5.670;2022-09-16T02:06:45;101017.03;;;14.13
48362;BMP280;34510;51.888;5.670;2022-09-16T02:11:51;101034.84;;;14.12
48362;BMP280;34510;51.888;5.670;2022-09-16T02:17:00;101022.09;;;14.29
48362;BMP280;34510;51.888;5.670;2022-09-16T02:22:07;101024.56;;;14.06
48362;BMP280;34510;51.888;5.670;2022-09-16T02:27:15;101016.69;;;13.96
48362;BMP280;34510;51.888;5.670;2022-09-16T02:32:19;101023.06;;;14.10
48362;BMP280;34510;51.888;5.670;2022-09-16T02:37:30;101012.16;;;14.02
48362;BMP280;34510;51.888;5.670;2022-09-16T02:42:34;101011.59;;;13.80
48362;BMP280;34510;51.888;5.670;2022-09-16T02:48:24;101017.84;;;13.62
48362;BMP280;34510;51.888;5.670;2022-09-16T02:58:12;101011.25;;;13.50
48362;BMP280;34510;51.888;5.670;2022-09-16T03:03:14;101013.78;;;13.72
48362;BMP280;34510;51.888;5.670;2022-09-16T03:08:16;101012.03;;;13.77
48362;BMP280;34510;51.888;5.670;2022-09-16T03:13:27;101008.22;;;13.72
48362;BMP280;34510;51.888;5.670;2022-09-16T03:34:22;101028.81;;;13.57
48362;BMP280;34510;51.888;5.670;2022-09-16T03:39:25;101024.50;;;13.68
48362;BMP280;34510;51.888;5.670;2022-09-16T03:44:35;101017.16;;;13.87
48362;BMP280;34510;51.888;5.670;2022-09-16T03:49:37;100994.06;;;13.67
48362;BMP280;34510;51.888;5.670;2022-09-16T03:54:39;101006.94;;;13.61
48362;BMP280;34510;51.888;5.670;2022-09-16T03:59:40;101005.63;;;13.63
48362;BMP280;34510;51.888;5.670;2022-09-16T04:04:42;100998.78;;;13.73
48362;BMP280;34510;51.888;5.670;2022-09-16T04:09:44;101003.06;;;13.69
48362;BMP280;34510;51.888;5.670;2022-09-16T04:14:46;101002.63;;;13.72
48362;BMP280;34510;51.888;5.670;2022-09-16T04:19:47;101017.22;;;13.54
48362;BMP280;34510;51.888;5.670;2022-09-16T04:24:49;101022.75;;;13.80
48362;BMP280;34510;51.888;5.670;2022-09-16T04:29:51;101019.34;;;13.72
48362;BMP280;34510;51.888;5.670;2022-09-16T04:34:53;101003.41;;;13.92
48362;BMP280;34510;51.888;5.670;2022-09-16T04:39:55;100994.84;;;13.87
48362;BMP280;34510;51.888;5.670;2022-09-16T04:45:04;100995.50;;;13.89
48362;BMP280;34510;51.888;5.670;2022-09-16T04:50:07;100982.03;;;13.79
48362;BMP280;34510;51.888;5.670;2022-09-16T04:55:09;100983.97;;;13.72
48362;BMP280;34510;51.888;5.670;2022-09-16T05:00:12;100977.78;;;13.57
48362;BMP280;34510;51.888;5.670;2022-09-16T05:05:14;100991.09;;;13.55
48362;BMP280;34510;51.888;5.670;2022-09-16T05:10:17;100982.09;;;13.46
48362;BMP280;34510;51.888;5.670;2022-09-16T05:15:19;100987.47;;;13.41
48362;BMP280;34510;51.888;5.670;2022-09-16T05:20:21;100983.78;;;13.54
48362;BMP280;34510;51.888;5.670;2022-09-16T05:25:23;100992.84;;;13.43
48362;BMP280;34510;51.888;5.670;2022-09-16T05:30:24;100998.44;;;13.29
48362;BMP280;34510;51.888;5.670;2022-09-16T05:35:27;101005.72;;;13.17
48362;BMP280;34510;51.888;5.670;2022-09-16T05:40:29;101007.44;;;13.18
48362;BMP280;34510;51.888;5.670;2022-09-16T05:45:30;101014.72;;;13.13
48362;BMP280;34510;51.888;5.670;2022-09-16T05:50:33;101015.56;;;13.13
48362;BMP280;34510;51.888;5.670;2022-09-16T05:55:35;101008.72;;;13.29
48362;BMP280;34510;51.888;5.670;2022-09-16T06:00:38;101017.25;;;13.41
48362;BMP280;34510;51.888;5.670;2022-09-16T06:05:39;101023.88;;;13.66
48362;BMP280;34510;51.888;5.670;2022-09-16T06:10:46;101022.44;;;13.24
48362;BMP280;34510;51.888;5.670;2022-09-16T06:15:49;101034.16;;;13.66
48362;BMP280;34510;51.888;5.670;2022-09-16T06:20:52;101057.00;;;14.01
48362;BMP280;34510;51.888;5.670;2022-09-16T06:26:04;101038.03;;;14.16
48362;BMP280;34510;51.888;5.670;2022-09-16T06:31:10;101043.25;;;13.99
48362;BMP280;34510;51.888;5.670;2022-09-16T06:36:14;101045.94;;;13.61
48362;BMP280;34510;51.888;5.670;2022-09-16T06:41:18;101038.38;;;13.88
48362;BMP280;34510;51.888;5.670;2022-09-16T06:46:23;101042.50;;;13.59
48362;BMP280;34510;51.888;5.670;2022-09-16T06:51:27;101039.00;;;13.96
48362;BMP280;34510;51.888;5.670;2022-09-16T06:56:29;101044.66;;;14.21
48362;BMP280;34510;51.888;5.670;2022-09-16T07:01:32;101047.00;;;14.24
48362;BMP280;34510;51.888;5.670;2022-09-16T07:06:35;101034.25;;;14.55
48362;BMP280;34510;51.888;5.670;2022-09-16T07:11:57;101047.81;;;14.45
48362;BMP280;34510;51.888;5.670;2022-09-16T07:17:00;101031.88;;;15.15
48362;BMP280;34510;51.888;5.670;2022-09-16T07:22:02;101032.75;;;15.59
48362;BMP280;34510;51.888;5.670;2022-09-16T07:27:04;101045.88;;;15.33
48362;BMP280;34510;51.888;5.670;2022-09-16T07:32:06;101034.41;;;15.66
48362;BMP280;34510;51.888;5.670;2022-09-16T07:37:07;101034.81;;;15.70
48362;BMP280;34510;51.888;5.670;2022-09-16T07:42:09;101031.16;;;15.44
48362;BMP280;34510;51.888;5.670;2022-09-16T07:47:11;101033.72;;;15.46
48362;BMP280;34510;51.888;5.670;2022-09-16T07:52:12;101037.41;;;15.21
48362;BMP280;34510;51.888;5.670;2022-09-16T07:57:14;101047.25;;;15.24
48362;BMP280;34510;51.888;5.670;2022-09-16T08:02:16;101039.63;;;15.63
48362;BMP280;34510;51.888;5.670;2022-09-16T08:07:18;101047.22;;;16.10
48362;BMP280;34510;51.888;5.670;2022-09-16T08:12:20;101047.63;;;15.96
48362;BMP280;34510;51.888;5.670;2022-09-16T08:17:21;101051.03;;;15.98
48362;BMP280;34510;51.888;5.670;2022-09-16T08:22:23;101055.94;;;16.02
48362;BMP280;34510;51.888;5.670;2022-09-16T08:27:26;101053.44;;;16.12
48362;BMP280;34510;51.888;5.670;2022-09-16T08:32:28;101052.66;;;16.42
48362;BMP280;34510;51.888;5.670;2022-09-16T08:37:29;101053.06;;;16.27
48362;BMP280;34510;51.888;5.670;2022-09-16T08:47:48;101067.50;;;16.42
48362;BMP280;34510;51.888;5.670;2022-09-16T08:52:56;101059.00;;;16.67
48362;BMP280;34510;51.888;5.670;2022-09-16T08:58:09;101064.00;;;16.47
48362;BMP280;34510;51.888;5.670;2022-09-16T09:03:37;101055.44;;;16.42
48362;BMP280;34510;51.888;5.670;2022-09-16T09:19:47;101058.72;;;15.66
48362;BMP280;34510;51.888;5.670;2022-09-16T09:30:29;101063.38;;;16.45
48362;BMP280;34510;51.888;5.670;2022-09-16T09:35:46;101071.09;;;16.79
48362;BMP280;34510;51.888;5.670;2022-09-16T09:40:53;101060.38;;;17.41
48362;BMP280;34510;51.888;5.670;2022-09-16T09:46:24;101063.50;;;16.98
48362;BMP280;34510;51.888;5.670;2022-09-16T09:57:04;101065.69;;;16.48
48362;BMP280;34510;51.888;5.670;2022-09-16T10:02:15;101059.97;;;16.73
48362;BMP280;34510;51.888;5.670;2022-09-16T10:07:20;101060.69;;;16.68
48362;BMP280;34510;51.888;5.670;2022-09-16T10:12:30;101061.00;;;16.60
48362;BMP280;34510;51.888;5.670;2022-09-16T10:17:33;101054.75;;;17.18
48362;BMP280;34510;51.888;5.670;2022-09-16T10:22:34;101057.34;;;17.55
48362;BMP280;34510;51.888;5.670;2022-09-16T10:27:37;101057.94;;;17.45
48362;BMP280;34510;51.888;5.670;2022-09-16T10:32:54;101057.13;;;17.91
48362;BMP280;34510;51.888;5.670;2022-09-16T10:37:58;101056.34;;;17.26
48362;BMP280;34510;51.888;5.670;2022-09-16T10:43:12;101045.28;;;17.42
48362;BMP280;34510;51.888;5.670;2022-09-16T10:48:17;101049.75;;;17.08
48362;BMP280;34510;51.888;5.670;2022-09-16T10:53:39;101051.53;;;17.80
48362;BMP280;34510;51.888;5.670;2022-09-16T10:58:45;101051.97;;;17.30
48362;BMP280;34510;51.888;5.670;2022-09-16T11:14:37;101093.41;;;16.38
48362;BMP280;34510;51.888;5.670;2022-09-16T11:20:22;101092.16;;;16.34
48362;BMP280;34510;51.888;5.670;2022-09-16T11:30:31;101088.84;;;15.64
48362;BMP280;34510;51.888;5.670;2022-09-16T11:35:57;101087.94;;;15.70
48362;BMP280;34510;51.888;5.670;2022-09-16T11:41:07;101104.72;;;15.38
48362;BMP280;34510;51.888;5.670;2022-09-16T11:57:00;101105.28;;;14.90
48362;BMP280;34510;51.888;5.670;2022-09-16T12:02:34;101098.00;;;14.89
48362;BMP280;34510;51.888;5.670;2022-09-16T12:07:42;101105.13;;;15.42
48362;BMP280;34510;51.888;5.670;2022-09-16T12:12:49;101094.91;;;15.61
48362;BMP280;34510;51.888;5.670;2022-09-16T12:17:58;101095.63;;;15.74
48362;BMP280;34510;51.888;5.670;2022-09-16T12:28:26;101106.09;;;15.29
48362;BMP280;34510;51.888;5.670;2022-09-16T12:33:41;101083.03;;;16.87
48362;BMP280;34510;51.888;5.670;2022-09-16T12:38:45;101082.69;;;16.65
48362;BMP280;34510;51.888;5.670;2022-09-16T13:00:18;101075.78;;;16.67
48362;BMP280;34510;51.888;5.670;2022-09-16T13:05:28;101081.28;;;16.74
48362;BMP280;34510;51.888;5.670;2022-09-16T13:10:36;101064.97;;;17.01
48362;BMP280;34510;51.888;5.670;2022-09-16T13:16:01;101073.34;;;17.66
48362;BMP280;34510;51.888;5.670;2022-09-16T13:21:24;101069.59;;;17.07
48362;BMP280;34510;51.888;5.670;2022-09-16T13:26:38;101074.94;;;16.67
48362;BMP280;34510;51.888;5.670;2022-09-16T13:31:45;101069.63;;;16.77
48362;BMP280;34510;51.888;5.670;2022-09-16T13:36:48;101078.16;;;15.97
48362;BMP280;34510;51.888;5.670;2022-09-16T13:41:49;101069.78;;;15.29
48362;BMP280;34510;51.888;5.670;2022-09-16T13:46:51;101053.53;;;15.69
48362;BMP280;34510;51.888;5.670;2022-09-16T13:51:53;101053.41;;;15.58
48362;BMP280;34510;51.888;5.670;2022-09-16T14:02:41;101059.69;;;16.63
48362;BMP280;34510;51.888;5.670;2022-09-16T14:07:50;101054.41;;;16.85
48362;BMP280;34510;51.888;5.670;2022-09-16T14:13:15;101045.34;;;17.01
48362;BMP280;34510;51.888;5.670;2022-09-16T14:18:20;101037.22;;;17.11
48362;BMP280;34510;51.888;5.670;2022-09-16T14:23:24;101036.69;;;16.91
48362;BMP280;34510;51.888;5.670;2022-09-16T14:28:27;101037.72;;;17.31
48362;BMP280;34510;51.888;5.670;2022-09-16T14:33:31;101037.31;;;16.93
48362;BMP280;34510;51.888;5.670;2022-09-16T14:38:42;101044.38;;;16.65
48362;BMP280;34510;51.888;5.670;2022-09-16T14:43:47;101051.66;;;16.36
48362;BMP280;34510;51.888;5.670;2022-09-16T14:48:49;101050.88;;;16.11
48362;BMP280;34510;51.888;5.670;2022-09-16T14:53:56;101048.16;;;16.04
48362;BMP280;34510;51.888;5.670;2022-09-16T14:59:14;101058.72;;;16.21
48362;BMP280;34510;51.888;5.670;2022-09-16T15:04:24;101054.31;;;16.61
48362;BMP280;34510;51.888;5.670;2022-09-16T15:09:49;101047.78;;;16.67
48362;BMP280;34510;51.888;5.670;2022-09-16T15:14:53;101048.25;;;16.64
48362;BMP280;34510;51.888;5.670;2022-09-16T15:19:58;101043.34;;;16.11
48362;BMP280;34510;51.888;5.670;2022-09-16T15:25:00;101027.66;;;16.29
48362;BMP280;34510;51.888;5.670;2022-09-16T15:30:02;101027.78;;;16.34
48362;BMP280;34510;51.888;5.670;2022-09-16T15:45:28;101030.44;;;16.10
48362;BMP280;34510;51.888;5.670;2022-09-16T15:50:39;101041.47;;;16.24
48362;BMP280;34510;51.888;5.670;2022-09-16T15:55:51;101041.41;;;16.60
48362;BMP280;34510;51.888;5.670;2022-09-16T16:01:04;101040.09;;;16.93
48362;BMP280;34510;51.888;5.670;2022-09-16T16:06:07;101069.41;;;16.60
48362;BMP280;34510;51.888;5.670;2022-09-16T16:11:12;101044.03;;;16.25
48362;BMP280;34510;51.888;5.670;2022-09-16T16:16:15;101049.25;;;16.40
48362;BMP280;34510;51.888;5.670;2022-09-16T16:21:17;101031.69;;;16.14
48362;BMP280;34510;51.888;5.670;2022-09-16T16:26:19;101051.59;;;15.88
48362;BMP280;34510;51.888;5.670;2022-09-16T16:31:21;101079.16;;;14.78
48362;BMP280;34510;51.888;5.670;2022-09-16T16:36:23;101082.19;;;14.77
48362;BMP280;34510;51.888;5.670;2022-09-16T16:41:24;101077.06;;;14.74
48362;BMP280;34510;51.888;5.670;2022-09-16T16:46:27;101076.38;;;14.78
48362;BMP280;34510;51.888;5.670;2022-09-16T16:51:29;101061.34;;;14.79
48362;BMP280;34510;51.888;5.670;2022-09-16T16:56:31;101068.00;;;14.78
48362;BMP280;34510;51.888;5.670;2022-09-16T17:01:33;101065.34;;;14.90
48362;BMP280;34510;51.888;5.670;2022-09-16T17:06:36;101073.19;;;14.75
48362;BMP280;34510;51.888;5.670;2022-09-16T17:11:59;101074.22;;;14.80
48362;BMP280;34510;51.888;5.670;2022-09-16T17:17:01;101081.59;;;14.68
48362;BMP280;34510;51.888;5.670;2022-09-16T17:22:03;101103.13;;;14.61
48362;BMP280;34510;51.888;5.670;2022-09-16T17:27:05;101101.59;;;14.65
48362;BMP280;34510;51.888;5.670;2022-09-16T17:32:07;101100.16;;;14.49
48362;BMP280;34510;51.888;5.670;2022-09-16T17:37:09;101104.06;;;14.35
48362;BMP280;34510;51.888;5.670;2022-09-16T17:42:10;101101.47;;;14.47
48362;BMP280;34510;51.888;5.670;2022-09-16T17:47:12;101111.78;;;14.40
48362;BMP280;34510;51.888;5.670;2022-09-16T17:52:14;101115.66;;;14.39
48362;BMP280;34510;51.888;5.670;2022-09-16T17:57:16;101113.97;;;14.24
48362;BMP280;34510;51.888;5.670;2022-09-16T18:02:18;101116.53;;;14.19
48362;BMP280;34510;51.888;5.670;2022-09-16T18:07:22;101124.75;;;14.01
48362;BMP280;34510;51.888;5.670;2022-09-16T18:12:23;101124.34;;;13.98
48362;BMP280;34510;51.888;5.670;2022-09-16T18:17:25;101123.53;;;13.84
48362;BMP280;34510;51.888;5.670;2022-09-16T18:22:28;101139.41;;;13.77
48362;BMP280;34510;51.888;5.670;2022-09-16T18:27:30;101141.97;;;13.65
48362;BMP280;34510;51.888;5.670;2022-09-16T18:32:31;101141.53;;;13.61
48362;BMP280;34510;51.888;5.670;2022-09-16T18:37:33;101152.91;;;13.67
48362;BMP280;34510;51.888;5.670;2022-09-16T18:42:35;101151.84;;;13.54
48362;BMP280;34510;51.888;5.670;2022-09-16T18:47:36;101145.38;;;13.60
48362;BMP280;34510;51.888;5.670;2022-09-16T18:52:38;101152.91;;;13.40
48362;BMP280;34510;51.888;5.670;2022-09-16T18:57:40;101156.75;;;13.46
48362;BMP280;34510;51.888;5.670;2022-09-16T19:02:42;101159.53;;;13.52
48362;BMP280;34510;51.888;5.670;2022-09-16T19:07:44;101162.97;;;13.48
48362;BMP280;34510;51.888;5.670;2022-09-16T19:12:45;101159.34;;;13.74
48362;BMP280;34510;51.888;5.670;2022-09-16T19:17:47;101161.50;;;13.72
48362;BMP280;34510;51.888;5.670;2022-09-16T19:22:49;101162.13;;;13.74
48362;BMP280;34510;51.888;5.670;2022-09-16T19:27:51;101174.13;;;13.81
48362;BMP280;34510;51.888;5.670;2022-09-16T19:32:52;101156.97;;;13.57
48362;BMP280;34510;51.888;5.670;2022-09-16T19:37:55;101164.03;;;13.53
48362;BMP280;34510;51.888;5.670;2022-09-16T19:42:56;101162.56;;;13.44
48362;BMP280;34510;51.888;5.670;2022-09-16T19:47:58;101169.41;;;13.48
48362;BMP280;34510;51.888;5.670;2022-09-16T19:53:00;101169.19;;;13.43
48362;BMP280;34510;51.888;5.670;2022-09-16T19:58:02;101174.75;;;13.43
48362;BMP280;34510;51.888;5.670;2022-09-16T20:03:04;101178.63;;;13.42
48362;BMP280;34510;51.888;5.670;2022-09-16T20:08:05;101185.91;;;13.50
48362;BMP280;34510;51.888;5.670;2022-09-16T20:13:07;101186.97;;;13.62
48362;BMP280;34510;51.888;5.670;2022-09-16T20:18:09;101191.69;;;13.55
48362;BMP280;34510;51.888;5.670;2022-09-16T20:23:11;101205.84;;;13.53
48362;BMP280;34510;51.888;5.670;2022-09-16T20:28:12;101199.84;;;13.56
48362;BMP280;34510;51.888;5.670;2022-09-16T20:33:14;101201.97;;;13.54
48362;BMP280;34510;51.888;5.670;2022-09-16T20:38:16;101204.56;;;13.49
48362;BMP280;34510;51.888;5.670;2022-09-16T20:43:18;101208.22;;;13.83
48362;BMP280;34510;51.888;5.670;2022-09-16T20:48:19;101205.00;;;13.73
48362;BMP280;34510;51.888;5.670;2022-09-16T20:53:21;101207.97;;;13.64
48362;BMP280;34510;51.888;5.670;2022-09-16T20:58:23;101205.19;;;13.38
48362;BMP280;34510;51.888;5.670;2022-09-16T21:03:25;101193.41;;;13.43
48362;BMP280;34510;51.888;5.670;2022-09-16T21:08:27;101192.13;;;13.52
48362;BMP280;34510;51.888;5.670;2022-09-16T21:13:34;101197.94;;;13.77
48362;BMP280;34510;51.888;5.670;2022-09-16T21:18:36;101204.97;;;13.53
48362;BMP280;34510;51.888;5.670;2022-09-16T21:23:39;101206.69;;;13.47
48362;BMP280;34510;51.888;5.670;2022-09-16T21:28:43;101206.50;;;13.55
48362;BMP280;34510;51.888;5.670;2022-09-16T21:33:45;101214.63;;;13.37
48362;BMP280;34510;51.888;5.670;2022-09-16T21:38:50;101214.19;;;13.53
48362;BMP280;34510;51.888;5.670;2022-09-16T21:43:54;101215.28;;;13.52
48362;BMP280;34510;51.888;5.670;2022-09-16T21:48:58;101218.50;;;13.62
48362;BMP280;34510;51.888;5.670;2022-09-16T21:54:04;101219.78;;;13.47
48362;BMP280;34510;51.888;5.670;2022-09-16T21:59:07;101230.47;;;13.43
48362;BMP280;34510;51.888;5.670;2022-09-16T22:04:12;101230.28;;;13.51
48362;BMP280;34510;51.888;5.670;2022-09-16T22:09:14;101228.81;;;13.69
48362;BMP280;34510;51.888;5.670;2022-09-16T22:14:16;101225.38;;;13.67
48362;BMP280;34510;51.888;5.670;2022-09-16T22:19:18;101224.69;;;13.58
48362;BMP280;34510;51.888;5.670;2022-09-16T22:24:20;101218.91;;;13.33
48362;BMP280;34510;51.888;5.670;2022-09-16T22:29:22;101225.53;;;13.25
48362;BMP280;34510;51.888;5.670;2022-09-16T22:34:23;101231.97;;;13.32
48362;BMP280;34510;51.888;5.670;2022-09-16T22:39:25;101237.09;;;13.29
48362;BMP280;34510;51.888;5.670;2022-09-16T22:44:27;101234.31;;;13.22
48362;BMP280;34510;51.888;5.670;2022-09-16T22:49:29;101228.53;;;13.37
48362;BMP280;34510;51.888;5.670;2022-09-16T22:54:30;101220.53;;;13.08
48362;BMP280;34510;51.888;5.670;2022-09-16T22:59:32;101225.88;;;13.02
48362;BMP280;34510;51.888;5.670;2022-09-16T23:04:34;101217.25;;;12.97
48362;BMP280;34510;51.888;5.670;2022-09-16T23:09:36;101232.91;;;12.98
48362;BMP280;34510;51.888;5.670;2022-09-16T23:14:38;101222.88;;;13.04
48362;BMP280;34510;51.888;5.670;2022-09-16T23:19:40;101219.34;;;12.82
48362;BMP280;34510;51.888;5.670;2022-09-16T23:24:41;101224.53;;;12.98
48362;BMP280;34510;51.888;5.670;2022-09-16T23:29:43;101232.19;;;12.83
48362;BMP280;34510;51.888;5.670;2022-09-16T23:34:45;101232.91;;;12.98
48362;BMP280;34510;51.888;5.670;2022-09-16T23:39:47;101228.88;;;13.08
48362;BMP280;34510;51.888;5.670;2022-09-16T23:44:48;101224.81;;;13.04
48362;BMP280;34510;51.888;5.670;2022-09-16T23:49:50;101222.03;;;13.04
48362;BMP280;34510;51.888;5.670;2022-09-16T23:54:53;101233.09;;;12.97
48362;BMP280;34510;51.888;5.670;2022-09-16T23:59:54;101234.16;;;12.96
